createdAt,value
2019-03-16T00:04:05.664Z,19.62
2019-03-16T00:09:11.933Z,15.63
2019-03-16T00:14:18.231Z,13.53
2019-03-16T00:19:24.471Z,16.80
2019-03-16T00:24:31.867Z,16.25
2019-03-16T00:29:38.187Z,14.80
2019-03-16T00:34:44.802Z,12.20
2019-03-16T00:39:51.068Z,8.90
2019-03-16T00:44:57.348Z,10.48
2019-03-16T00:50:03.846Z,12.30
2019-03-16T00:55:10.358Z,9.40
2019-03-16T01:00:16.840Z,10.60
2019-03-16T01:05:23.183Z,14.00
2019-03-16T01:10:29.388Z,11.83
2019-03-16T01:15:35.635Z,9.95
2019-03-16T01:20:41.838Z,8.67
2019-03-16T01:25:48.452Z,9.47
2019-03-16T01:30:54.707Z,5.83
2019-03-16T01:36:00.990Z,7.27
2019-03-16T01:41:07.259Z,11.83
2019-03-16T01:46:13.594Z,12.60
2019-03-16T01:51:19.864Z,11.53
2019-03-16T01:56:26.132Z,10.13
2019-03-16T02:01:32.397Z,8.67
2019-03-16T02:06:38.655Z,7.63
2019-03-16T02:11:44.872Z,7.10
2019-03-16T02:16:51.134Z,9.23
2019-03-16T02:21:57.369Z,8.33
2019-03-16T02:27:03.783Z,9.20
2019-03-16T02:32:10.014Z,8.20
2019-03-16T02:37:16.535Z,8.33
2019-03-16T02:42:22.849Z,11.63
2019-03-16T02:47:29.184Z,9.00
2019-03-16T02:52:35.461Z,13.63
2019-03-16T02:57:41.964Z,10.53
2019-03-16T03:02:48.193Z,12.37
2019-03-16T03:07:54.459Z,11.33
2019-03-16T03:13:00.682Z,13.20
2019-03-16T03:18:07.235Z,15.60
2019-03-16T03:23:13.848Z,17.20
2019-03-16T03:28:20.171Z,17.17
2019-03-16T03:33:26.498Z,18.77
2019-03-16T03:38:32.783Z,16.75
2019-03-16T03:43:39.082Z,19.90
2019-03-16T03:48:45.380Z,16.85
2019-03-16T03:53:51.658Z,16.97
2019-03-16T03:59:00.275Z,14.13
2019-03-16T04:04:15.093Z,15.48
2019-03-16T04:09:14.529Z,11.68
2019-03-16T04:14:20.856Z,13.65
2019-03-16T04:19:27.292Z,13.13
2019-03-16T04:24:33.586Z,12.75
2019-03-16T04:29:39.851Z,12.67
2019-03-16T04:34:46.183Z,11.60
2019-03-16T04:39:52.512Z,11.65
2019-03-16T04:44:58.839Z,10.37
2019-03-16T04:50:06.144Z,10.33
2019-03-16T04:55:12.337Z,10.93
2019-03-16T05:00:18.532Z,12.17
2019-03-16T05:05:24.794Z,17.53
2019-03-16T05:10:31.124Z,11.40
2019-03-16T05:15:37.489Z,14.43
2019-03-16T05:20:43.789Z,13.40
2019-03-16T05:25:50.091Z,9.37
2019-03-16T05:30:56.455Z,12.03
2019-03-16T05:36:02.982Z,14.73
2019-03-16T05:41:09.360Z,10.70
2019-03-16T05:46:15.705Z,10.98
2019-03-16T05:51:22.072Z,12.35
2019-03-16T05:56:28.365Z,11.10
2019-03-16T06:01:34.744Z,9.23
2019-03-16T06:06:41.078Z,15.23
2019-03-16T06:11:48.340Z,8.53
2019-03-16T06:16:54.999Z,11.95
2019-03-16T06:22:01.374Z,10.20
2019-03-16T06:27:07.698Z,9.00
2019-03-16T06:32:13.990Z,11.00
2019-03-16T06:37:20.287Z,8.80
2019-03-16T06:42:27.589Z,8.88
2019-03-16T06:47:33.854Z,8.47
2019-03-16T06:52:40.129Z,7.77
2019-03-16T06:57:46.387Z,6.83
2019-03-16T07:02:52.708Z,4.30
2019-03-16T07:07:59.083Z,2.43
2019-03-16T07:13:05.621Z,2.00
2019-03-16T07:18:11.850Z,2.67
2019-03-16T07:23:18.325Z,3.97
2019-03-16T07:28:24.694Z,3.63
2019-03-16T07:33:30.953Z,2.90
2019-03-16T07:38:37.228Z,3.50
2019-03-16T07:43:43.536Z,4.55
2019-03-16T07:48:49.765Z,3.87
2019-03-16T07:53:56.031Z,3.77
2019-03-16T07:59:02.328Z,6.63
2019-03-16T08:04:08.651Z,5.50
2019-03-16T08:09:18.164Z,2.60
2019-03-16T08:14:24.459Z,5.40
2019-03-16T08:19:30.655Z,3.00
2019-03-16T08:24:36.917Z,4.03
2019-03-16T08:29:43.153Z,6.37
2019-03-16T08:34:49.685Z,4.27
2019-03-16T08:39:55.915Z,7.07
2019-03-16T08:45:02.189Z,3.07
2019-03-16T08:50:08.724Z,3.95
2019-03-16T08:55:15.146Z,6.35
2019-03-16T09:00:21.509Z,4.30
2019-03-16T09:05:27.774Z,4.30
2019-03-16T09:10:34.125Z,5.23
2019-03-16T09:15:40.363Z,4.97
2019-03-16T09:20:46.620Z,2.85
2019-03-16T09:25:52.948Z,2.60
2019-03-16T09:30:59.257Z,3.23
2019-03-16T09:36:05.576Z,4.03
2019-03-16T09:41:11.907Z,2.23
2019-03-16T09:46:18.302Z,4.97
2019-03-16T09:51:24.576Z,3.30
2019-03-16T09:56:30.847Z,2.93
2019-03-16T10:01:37.358Z,3.27
2019-03-16T10:06:43.741Z,1.97
2019-03-16T10:11:50.085Z,4.90
2019-03-16T10:16:56.407Z,4.05
2019-03-16T10:22:02.758Z,4.95
2019-03-16T10:27:09.011Z,2.83
2019-03-16T10:32:15.236Z,1.85
2019-03-16T10:37:21.481Z,2.15
2019-03-16T10:42:27.726Z,3.13
2019-03-16T10:47:34.004Z,1.80
2019-03-16T10:52:40.280Z,2.20
2019-03-16T10:57:46.596Z,1.95
2019-03-16T11:02:52.933Z,3.10
2019-03-16T11:07:59.611Z,2.47
2019-03-16T11:13:05.940Z,3.43
2019-03-16T11:18:12.143Z,3.02
2019-03-16T11:23:18.402Z,2.03
2019-03-16T11:28:24.755Z,3.07
2019-03-16T11:33:31.009Z,2.47
2019-03-16T11:38:37.267Z,3.05
2019-03-16T11:43:43.583Z,2.27
2019-03-16T11:48:49.964Z,1.37
2019-03-16T11:53:56.208Z,2.23
2019-03-16T11:59:02.433Z,3.00
2019-03-16T12:04:08.718Z,3.75
2019-03-16T12:09:14.971Z,2.02
2019-03-16T12:14:21.242Z,1.87
2019-03-16T12:19:28.742Z,2.87
2019-03-16T12:24:35.212Z,2.67
2019-03-16T12:29:41.626Z,3.07
2019-03-16T12:34:48.080Z,3.57
2019-03-16T12:39:54.364Z,2.47
2019-03-16T12:45:00.721Z,3.47
2019-03-16T12:50:07.587Z,3.10
2019-03-16T12:55:15.539Z,2.85
2019-03-16T13:00:21.817Z,2.08
2019-03-16T13:05:28.104Z,2.03
2019-03-16T13:10:34.439Z,1.98
2019-03-16T13:15:40.864Z,1.57
2019-03-16T13:20:47.186Z,2.87
2019-03-16T13:25:53.517Z,2.30
2019-03-16T13:30:59.779Z,1.53
2019-03-16T13:36:06.509Z,2.07
2019-03-16T13:41:12.920Z,3.27
2019-03-16T13:46:19.297Z,2.97
2019-03-16T13:51:25.617Z,2.20
2019-03-16T13:56:31.958Z,2.33
2019-03-16T14:01:38.398Z,1.42
2019-03-16T14:06:44.683Z,2.57
2019-03-16T14:11:51.288Z,2.30
2019-03-16T14:16:57.665Z,3.00
2019-03-16T14:22:03.995Z,1.93
2019-03-16T14:27:10.416Z,2.50
2019-03-16T14:32:17.096Z,2.45
2019-03-16T14:37:23.648Z,2.00
2019-03-16T14:42:31.050Z,4.53
2019-03-16T14:47:37.409Z,2.37
2019-03-16T14:52:43.978Z,3.07
2019-03-16T14:57:50.413Z,4.37
2019-03-16T15:02:56.667Z,5.45
2019-03-16T15:08:03.168Z,2.23
2019-03-16T15:13:09.544Z,3.57
2019-03-16T15:18:16.036Z,3.10
2019-03-16T15:23:22.845Z,2.83
2019-03-16T15:28:29.259Z,1.97
2019-03-16T15:33:35.902Z,1.97
2019-03-16T15:38:42.479Z,2.33
2019-03-16T15:43:49.044Z,2.63
2019-03-16T15:48:55.624Z,3.70
2019-03-16T15:54:02.058Z,2.20
2019-03-16T15:59:08.399Z,2.30
2019-03-16T16:04:14.935Z,2.60
2019-03-16T16:09:21.161Z,3.83
2019-03-16T16:14:27.538Z,3.77
2019-03-16T16:19:33.881Z,3.80
2019-03-16T16:24:40.508Z,3.60
2019-03-16T16:29:48.806Z,5.77
2019-03-16T16:34:55.430Z,5.07
2019-03-16T16:40:01.973Z,2.33
2019-03-16T16:45:09.787Z,3.83
2019-03-16T16:50:16.059Z,2.00
2019-03-16T16:55:22.542Z,3.93
2019-03-16T17:00:29.183Z,13.60
2019-03-16T17:05:35.429Z,7.57
2019-03-16T17:10:41.976Z,3.53
2019-03-16T17:15:49.692Z,2.90
2019-03-16T17:20:56.085Z,1.60
2019-03-16T17:26:02.792Z,3.00
2019-03-16T17:31:12.404Z,6.03
2019-03-16T17:36:22.252Z,3.25
2019-03-16T17:41:28.119Z,3.37
2019-03-16T17:46:34.462Z,3.37
2019-03-16T17:51:40.744Z,4.58
2019-03-16T17:56:46.999Z,5.65
2019-03-16T18:01:54.931Z,4.75
2019-03-16T18:07:01.373Z,3.90
2019-03-16T18:12:07.702Z,4.13
2019-03-16T18:17:13.998Z,4.17
2019-03-16T18:22:20.228Z,5.20
2019-03-16T18:27:26.520Z,5.05
2019-03-16T18:32:32.930Z,4.17
2019-03-16T18:37:39.384Z,5.43
2019-03-16T18:42:45.656Z,5.57
2019-03-16T18:47:51.962Z,5.20
2019-03-16T18:52:58.270Z,8.33
2019-03-16T18:58:05.566Z,7.72
2019-03-16T19:03:11.890Z,4.93
2019-03-16T19:08:18.319Z,8.08
2019-03-16T19:13:24.680Z,5.17
2019-03-16T19:18:31.262Z,8.13
2019-03-16T19:23:37.544Z,8.63
2019-03-16T19:28:44.815Z,6.37
2019-03-16T19:33:52.892Z,6.30
2019-03-16T19:38:59.358Z,7.17
2019-03-16T19:44:05.610Z,9.03
2019-03-16T19:49:11.857Z,6.70
2019-03-16T19:54:18.205Z,6.73
2019-03-16T19:59:24.689Z,9.40
2019-03-16T20:04:35.889Z,5.47
2019-03-16T20:09:39.620Z,6.43
2019-03-16T20:14:45.955Z,7.87
2019-03-16T20:19:52.183Z,7.90
2019-03-16T20:24:58.489Z,5.37
2019-03-16T20:30:06.171Z,5.63
2019-03-16T20:35:13.946Z,6.72
2019-03-16T20:40:20.364Z,6.97
2019-03-16T20:45:26.786Z,7.10
2019-03-16T20:50:33.419Z,6.63
2019-03-16T20:55:39.793Z,7.03
2019-03-16T21:00:46.075Z,7.87
2019-03-16T21:05:52.400Z,6.17
2019-03-16T21:10:58.787Z,7.63
2019-03-16T21:16:05.444Z,6.72
2019-03-16T21:21:12.067Z,6.57
2019-03-16T21:26:18.542Z,7.23
2019-03-16T21:31:24.840Z,6.97
2019-03-16T21:36:40.842Z,6.23
2019-03-16T21:41:40.157Z,7.63
2019-03-16T21:46:46.407Z,5.20
2019-03-16T21:51:52.719Z,5.03
2019-03-16T21:56:58.983Z,5.67
2019-03-16T22:02:05.310Z,5.42
2019-03-16T22:07:11.990Z,5.22
2019-03-16T22:12:18.307Z,5.63
2019-03-16T22:17:24.619Z,5.80
2019-03-16T22:22:30.939Z,5.13
2019-03-16T22:27:37.266Z,4.13
2019-03-16T22:32:43.540Z,4.53
2019-03-16T22:37:50.011Z,7.45
2019-03-16T22:42:56.336Z,6.50
2019-03-16T22:48:02.583Z,4.00
2019-03-16T22:53:10.103Z,6.13
2019-03-16T22:58:16.456Z,4.55
2019-03-16T23:03:22.880Z,3.83
2019-03-16T23:08:29.135Z,4.77
2019-03-16T23:13:35.457Z,4.30
2019-03-16T23:18:41.640Z,4.58
2019-03-16T23:23:47.935Z,4.80
2019-03-16T23:28:54.230Z,3.70
2019-03-16T23:34:01.637Z,3.93
2019-03-16T23:39:08.239Z,3.77
2019-03-16T23:44:14.633Z,5.60
2019-03-16T23:49:20.936Z,4.87
2019-03-16T23:54:27.242Z,3.40
2019-03-16T23:59:33.523Z,4.20
